createdAt,value
2022-08-22T00:00:02.693Z,72.00
2022-08-22T00:01:02.932Z,71.90
2022-08-22T00:02:02.602Z,73.41
2022-08-22T00:02:52.897Z,54.38
2022-08-22T00:02:53.142Z,55.33
2022-08-22T00:02:53.248Z,56.05
2022-08-22T00:02:56.592Z,58.72
2022-08-22T00:02:58.682Z,68.42
2022-08-22T00:03:02.493Z,52.22
2022-08-22T00:03:12.288Z,73.38
2022-08-22T00:04:02.591Z,74.35
2022-08-22T00:05:02.508Z,73.04
2022-08-22T00:06:02.426Z,73.95
2022-08-22T00:07:02.099Z,73.14
2022-08-22T00:08:02.084Z,73.35
2022-08-22T00:09:02.046Z,72.44
2022-08-22T00:10:02.573Z,71.94
2022-08-22T00:11:02.529Z,71.83
2022-08-22T00:12:01.983Z,72.24
2022-08-22T00:13:02.563Z,71.73
2022-08-22T00:14:02.473Z,73.75
2022-08-22T00:15:02.358Z,72.77
2022-08-22T00:16:02.233Z,72.37
2022-08-22T00:17:01.889Z,72.97
2022-08-22T00:18:01.779Z,72.97
2022-08-22T00:19:01.688Z,72.77
2022-08-22T00:20:01.657Z,72.37
2022-08-22T00:21:02.010Z,72.07
2022-08-22T00:22:01.942Z,72.17
2022-08-22T00:23:01.974Z,72.47
2022-08-22T00:24:01.838Z,72.77
2022-08-22T00:25:01.757Z,74.79
2022-08-22T00:26:02.000Z,75.70
2022-08-22T00:27:02.542Z,74.93
2022-08-22T00:28:03.005Z,75.43
2022-08-22T00:29:02.609Z,75.63
2022-08-22T00:30:02.488Z,75.73
2022-08-22T00:31:02.883Z,76.34
2022-08-22T00:32:02.124Z,76.23
2022-08-22T00:33:01.893Z,77.88
2022-08-22T00:34:01.908Z,76.77
2022-08-22T00:35:01.865Z,75.56
2022-08-22T00:36:01.895Z,75.56
2022-08-22T00:37:02.567Z,74.73
2022-08-22T00:38:02.504Z,75.56
2022-08-22T00:39:02.391Z,74.02
2022-08-22T00:40:03.182Z,74.62
2022-08-22T00:41:02.517Z,74.62
2022-08-22T00:42:02.695Z,73.72
2022-08-22T00:43:02.317Z,73.75
2022-08-22T00:44:02.570Z,73.55
2022-08-22T00:45:02.489Z,74.35
2022-08-22T00:46:02.381Z,78.19
2022-08-22T00:47:01.677Z,78.55
2022-08-22T00:48:02.215Z,78.45
2022-08-22T00:49:02.140Z,78.15
2022-08-22T00:50:01.954Z,76.97
2022-08-22T00:51:02.078Z,75.93
2022-08-22T00:52:02.679Z,75.87
2022-08-22T00:53:02.886Z,76.67
2022-08-22T00:54:02.490Z,75.76
2022-08-22T00:55:02.388Z,74.26
2022-08-22T00:56:02.337Z,74.15
2022-08-22T00:57:02.914Z,74.15
2022-08-22T00:58:02.782Z,74.26
2022-08-22T00:59:17.985Z,73.75
2022-08-22T01:00:02.815Z,75.36
2022-08-22T01:01:03.075Z,74.96
2022-08-22T01:02:02.162Z,75.96
2022-08-22T01:03:01.878Z,77.78
2022-08-22T01:04:01.851Z,78.89
2022-08-22T01:05:01.989Z,77.78
2022-08-22T01:06:01.981Z,78.19
2022-08-22T01:07:02.717Z,76.47
2022-08-22T01:08:02.620Z,78.52
2022-08-22T01:09:02.544Z,76.51
2022-08-22T01:10:02.862Z,76.71
2022-08-22T01:11:02.384Z,77.31
2022-08-22T01:12:03.162Z,78.02
2022-08-22T01:13:03.129Z,77.62
2022-08-22T01:14:03.016Z,78.02
2022-08-22T01:15:02.986Z,76.91
2022-08-22T01:16:02.861Z,76.61
2022-08-22T01:17:02.498Z,77.31
2022-08-22T01:18:02.412Z,76.51
2022-08-22T01:19:02.423Z,77.92
2022-08-22T01:20:02.515Z,76.40
2022-08-22T01:21:02.517Z,75.50
2022-08-22T01:22:02.768Z,75.90
2022-08-22T01:23:02.677Z,75.40
2022-08-22T01:24:03.210Z,75.60
2022-08-22T01:25:03.094Z,76.51
2022-08-22T01:26:02.969Z,75.80
2022-08-22T01:27:02.600Z,76.51
2022-08-22T01:28:02.576Z,75.84
2022-08-22T01:29:02.778Z,75.94
2022-08-22T01:30:02.400Z,75.43
2022-08-22T01:31:02.379Z,79.87
2022-08-22T01:32:03.361Z,77.55
2022-08-22T01:33:03.005Z,76.14
2022-08-22T01:34:02.910Z,78.36
2022-08-22T01:35:02.870Z,79.57
2022-08-22T01:36:03.296Z,79.77
2022-08-22T01:37:02.684Z,80.58
2022-08-22T01:38:02.799Z,79.16
2022-08-22T01:39:02.805Z,78.86
2022-08-22T01:40:02.856Z,78.06
2022-08-22T01:41:02.865Z,77.15
2022-08-22T01:42:02.421Z,78.06
2022-08-22T01:43:02.023Z,77.66
2022-08-22T01:44:02.034Z,76.84
2022-08-22T01:45:01.931Z,80.58
2022-08-22T01:46:02.488Z,79.16
2022-08-22T01:47:02.823Z,79.67
2022-08-22T01:48:02.788Z,79.81
2022-08-22T01:49:02.523Z,78.90
2022-08-22T01:50:02.448Z,81.22
2022-08-22T01:51:02.547Z,79.81
2022-08-22T01:52:03.027Z,79.91
2022-08-22T01:53:02.505Z,79.91
2022-08-22T01:54:03.101Z,78.09
2022-08-22T01:55:02.737Z,77.08
2022-08-22T01:56:02.633Z,76.68
2022-08-22T01:57:03.258Z,76.48
2022-08-22T01:58:02.973Z,77.08
2022-08-22T01:59:03.224Z,77.49
2022-08-22T02:00:02.679Z,77.69
2022-08-22T02:01:02.802Z,76.78
2022-08-22T02:02:01.795Z,76.78
2022-08-22T02:03:01.917Z,77.19
2022-08-22T02:04:01.933Z,77.59
2022-08-22T02:05:02.200Z,76.82
2022-08-22T02:06:02.186Z,77.32
2022-08-22T02:07:02.338Z,78.03
2022-08-22T02:08:02.461Z,78.74
2022-08-22T02:09:02.650Z,77.22
2022-08-22T02:10:02.564Z,76.62
2022-08-22T02:11:02.342Z,76.21
2022-08-22T02:12:02.327Z,76.01
2022-08-22T02:13:02.898Z,76.51
2022-08-22T02:14:02.730Z,76.92
2022-08-22T02:15:02.617Z,77.53
2022-08-22T02:16:02.735Z,76.72
2022-08-22T02:17:01.876Z,76.51
2022-08-22T02:18:01.806Z,77.02
2022-08-22T02:19:02.124Z,77.62
2022-08-22T02:20:02.106Z,78.33
2022-08-22T02:21:01.621Z,78.23
2022-08-22T02:22:02.571Z,77.86
2022-08-22T02:23:02.247Z,78.47
2022-08-22T02:24:02.193Z,77.66
2022-08-22T02:25:02.741Z,77.86
2022-08-22T02:26:02.449Z,77.86
2022-08-22T02:27:02.517Z,77.86
2022-08-22T02:28:02.999Z,77.15
2022-08-22T02:29:02.651Z,76.75
2022-08-22T02:30:02.461Z,77.97
2022-08-22T02:31:02.342Z,77.46
2022-08-22T02:32:02.147Z,77.06
2022-08-22T02:33:02.095Z,76.75
2022-08-22T02:34:02.395Z,76.86
2022-08-22T02:35:02.317Z,76.86
2022-08-22T02:36:02.309Z,77.15
2022-08-22T02:37:02.235Z,77.26
2022-08-22T02:38:02.199Z,78.88
2022-08-22T02:39:02.175Z,79.99
2022-08-22T02:40:02.193Z,78.77
2022-08-22T02:41:02.128Z,78.06
2022-08-22T02:42:01.780Z,79.52
2022-08-22T02:43:01.962Z,79.01
2022-08-22T02:44:01.857Z,80.83
2022-08-22T02:45:01.743Z,80.43
2022-08-22T02:46:01.630Z,80.43
2022-08-22T02:47:01.914Z,81.74
2022-08-22T02:48:01.809Z,81.23
2022-08-22T02:49:01.695Z,82.24
2022-08-22T02:50:01.751Z,82.45
2022-08-22T02:51:02.223Z,82.24
2022-08-22T02:52:02.028Z,82.35
2022-08-22T02:53:02.293Z,82.89
2022-08-22T02:54:02.256Z,80.87
2022-08-22T02:55:02.221Z,80.16
2022-08-22T02:56:02.186Z,79.55
2022-08-22T02:57:02.007Z,79.05
2022-08-22T02:58:02.143Z,78.34
2022-08-22T02:59:02.036Z,79.75
2022-08-22T03:00:02.026Z,79.05
2022-08-22T03:01:02.047Z,78.44
2022-08-22T03:02:02.283Z,78.14
2022-08-22T03:03:02.131Z,77.94
2022-08-22T03:04:02.762Z,78.34
2022-08-22T03:05:02.408Z,78.24
2022-08-22T03:06:02.264Z,78.04
2022-08-22T03:07:02.881Z,78.75
2022-08-22T03:08:02.753Z,78.14
2022-08-22T03:09:03.357Z,77.64
2022-08-22T03:10:03.002Z,77.43
2022-08-22T03:11:02.879Z,77.47
2022-08-22T03:12:02.087Z,77.26
2022-08-22T03:13:02.053Z,77.26
2022-08-22T03:14:02.142Z,77.26
2022-08-22T03:15:01.962Z,77.47
2022-08-22T03:16:02.519Z,77.17
2022-08-22T03:17:02.155Z,77.06
2022-08-22T03:18:02.039Z,76.86
2022-08-22T03:19:02.296Z,76.76
2022-08-22T03:20:02.021Z,76.76
2022-08-22T03:21:01.935Z,76.97
2022-08-22T03:22:02.555Z,76.76
2022-08-22T03:23:02.648Z,77.47
2022-08-22T03:24:02.623Z,78.28
2022-08-22T03:25:02.520Z,78.48
2022-08-22T03:26:07.351Z,79.22
2022-08-22T03:27:02.262Z,79.13
2022-08-22T03:28:02.465Z,80.54
2022-08-22T03:29:02.589Z,79.53
2022-08-22T03:30:02.364Z,79.02
2022-08-22T03:31:02.231Z,79.33
2022-08-22T03:32:02.817Z,79.02
2022-08-22T03:33:02.545Z,78.72
2022-08-22T03:34:03.144Z,79.02
2022-08-22T03:35:02.761Z,78.72
2022-08-22T03:36:02.682Z,78.21
2022-08-22T03:37:02.880Z,78.21
2022-08-22T03:38:02.786Z,78.25
2022-08-22T03:39:02.830Z,78.15
2022-08-22T03:40:02.898Z,78.96
2022-08-22T03:41:02.866Z,78.66
2022-08-22T03:42:02.751Z,79.97
2022-08-22T03:43:02.426Z,79.36
2022-08-22T03:44:02.510Z,79.67
2022-08-22T03:45:02.644Z,80.68
2022-08-22T03:46:02.261Z,81.18
2022-08-22T03:47:02.903Z,81.90
2022-08-22T03:48:02.621Z,81.49
2022-08-22T03:49:02.974Z,81.90
2022-08-22T03:50:02.950Z,81.18
2022-08-22T03:51:02.585Z,80.68
2022-08-22T03:52:03.138Z,80.92
2022-08-22T03:53:03.028Z,80.31
2022-08-22T03:54:03.328Z,80.01
2022-08-22T03:55:03.201Z,79.40
2022-08-22T03:56:03.083Z,79.60
2022-08-22T03:57:02.697Z,79.20
2022-08-22T03:58:02.582Z,79.10
2022-08-22T03:59:02.472Z,79.10
2022-08-22T04:00:02.583Z,78.89
2022-08-22T04:01:02.736Z,79.91
2022-08-22T04:02:02.977Z,79.60
2022-08-22T04:03:02.651Z,80.11
2022-08-22T04:04:02.540Z,79.80
2022-08-22T04:05:02.552Z,79.80
2022-08-22T04:06:02.629Z,84.06
2022-08-22T04:07:02.871Z,81.23
2022-08-22T04:08:03.542Z,82.84
2022-08-22T04:09:03.316Z,84.56
2022-08-22T04:10:03.161Z,83.65
2022-08-22T04:11:03.434Z,83.45
2022-08-22T04:12:02.957Z,83.25
2022-08-22T04:13:02.849Z,83.04
2022-08-22T04:14:02.669Z,83.45
2022-08-22T04:15:02.587Z,81.93
2022-08-22T04:16:02.780Z,81.23
2022-08-22T04:17:03.426Z,80.92
2022-08-22T04:18:03.368Z,81.87
2022-08-22T04:19:03.389Z,81.97
2022-08-22T04:20:03.298Z,81.97
2022-08-22T04:21:03.201Z,82.38
2022-08-22T04:22:03.193Z,82.48
2022-08-22T04:23:03.201Z,82.38
2022-08-22T04:24:03.159Z,82.17
2022-08-22T04:25:07.542Z,82.38
2022-08-22T04:26:08.240Z,82.38
2022-08-22T04:27:03.276Z,84.91
2022-08-22T04:28:03.333Z,84.91
2022-08-22T04:29:03.579Z,84.00
2022-08-22T04:30:03.127Z,83.90
2022-08-22T04:31:03.142Z,82.58
2022-08-22T04:32:03.206Z,83.18
2022-08-22T04:33:03.227Z,83.29
2022-08-22T04:34:03.049Z,83.80
2022-08-22T04:35:03.016Z,82.48
2022-08-22T04:36:03.036Z,84.14
2022-08-22T04:37:03.713Z,86.83
2022-08-22T04:38:03.266Z,84.20
2022-08-22T04:39:03.265Z,83.09
2022-08-22T04:40:03.396Z,82.68
2022-08-22T04:41:04.702Z,82.28
2022-08-22T04:42:28.810Z,81.67
2022-08-22T04:43:03.537Z,81.87
2022-08-22T04:44:02.580Z,83.09
2022-08-22T04:45:02.703Z,82.28
2022-08-22T04:46:03.340Z,81.91
2022-08-22T04:47:03.115Z,84.14
2022-08-22T04:48:02.561Z,86.68
2022-08-22T04:49:02.588Z,83.83
2022-08-22T04:50:03.248Z,82.82
2022-08-22T04:51:03.048Z,84.44
2022-08-22T04:52:03.698Z,83.43
2022-08-22T04:53:03.497Z,83.12
2022-08-22T04:54:03.491Z,81.71
2022-08-22T04:55:03.611Z,81.50
2022-08-22T04:56:07.296Z,81.30
2022-08-22T04:57:03.234Z,81.20
2022-08-22T04:58:06.415Z,80.90
2022-08-22T04:59:03.226Z,81.71
2022-08-22T05:00:03.203Z,82.11
2022-08-22T05:01:03.001Z,83.12
2022-08-22T05:02:02.151Z,83.43
2022-08-22T05:03:02.296Z,83.73
2022-08-22T05:04:02.372Z,83.33
2022-08-22T05:05:02.449Z,84.44
2022-08-22T05:06:02.536Z,84.24
2022-08-22T05:07:01.968Z,83.43
2022-08-22T05:08:02.088Z,82.21
2022-08-22T05:09:02.220Z,81.91
2022-08-22T05:10:09.121Z,81.91
2022-08-22T05:11:01.655Z,81.60
2022-08-22T05:12:01.655Z,82.42
2022-08-22T05:13:01.698Z,83.12
2022-08-22T05:14:01.814Z,83.23
2022-08-22T05:15:02.099Z,83.83
2022-08-22T05:16:01.661Z,84.14
2022-08-22T05:17:02.218Z,83.53
2022-08-22T05:18:02.344Z,83.73
2022-08-22T05:19:02.395Z,83.73
2022-08-22T05:20:02.306Z,83.23
2022-08-22T05:21:02.330Z,82.62
2022-08-22T05:22:02.066Z,83.23
2022-08-22T05:23:02.096Z,83.83
2022-08-22T05:24:02.554Z,83.33
2022-08-22T05:25:02.356Z,83.83
2022-08-22T05:26:02.561Z,84.24
2022-08-22T05:27:02.348Z,84.34
2022-08-22T05:28:02.846Z,83.94
2022-08-22T05:29:02.699Z,83.33
2022-08-22T05:30:02.294Z,84.44
2022-08-22T05:31:02.329Z,83.94
2022-08-22T05:32:02.419Z,84.14
2022-08-22T05:33:02.426Z,84.04
2022-08-22T05:34:02.383Z,85.05
2022-08-22T05:35:02.726Z,84.55
2022-08-22T05:36:02.498Z,84.55
2022-08-22T05:37:01.938Z,84.64
2022-08-22T05:38:02.161Z,84.64
2022-08-22T05:39:02.312Z,86.27
2022-08-22T05:40:02.283Z,86.16
2022-08-22T05:41:02.264Z,85.56
2022-08-22T05:42:02.314Z,84.55
2022-08-22T05:43:02.261Z,84.44
2022-08-22T05:44:02.151Z,84.85
2022-08-22T05:45:02.297Z,84.34
2022-08-22T05:46:02.352Z,84.44
2022-08-22T05:47:02.004Z,85.72
2022-08-22T05:48:02.030Z,86.13
2022-08-22T05:49:02.149Z,85.21
2022-08-22T05:50:01.876Z,85.31
2022-08-22T05:51:01.977Z,85.01
2022-08-22T05:52:01.968Z,85.42
2022-08-22T05:53:01.928Z,84.70
2022-08-22T05:54:02.029Z,83.80
2022-08-22T05:55:02.337Z,83.25
2022-08-22T05:56:02.452Z,83.35
2022-08-22T05:57:04.966Z,84.36
2022-08-22T05:58:02.538Z,84.16
2022-08-22T05:59:02.585Z,83.82
2022-08-22T06:00:02.624Z,84.02
2022-08-22T06:01:02.535Z,83.61
2022-08-22T06:02:04.048Z,83.21
2022-08-22T06:03:03.892Z,82.90
2022-08-22T06:04:03.662Z,82.90
2022-08-22T06:05:05.027Z,83.17
2022-08-22T06:06:03.940Z,83.58
2022-08-22T06:07:02.683Z,83.74
2022-08-22T06:08:02.824Z,83.23
2022-08-22T06:09:02.905Z,84.04
2022-08-22T06:10:02.916Z,83.74
2022-08-22T06:11:02.964Z,83.09
2022-08-22T06:12:03.045Z,83.50
2022-08-22T06:13:02.818Z,83.60
2022-08-22T06:14:03.085Z,82.89
2022-08-22T06:15:02.963Z,82.45
2022-08-22T06:16:03.020Z,82.85
2022-08-22T06:17:03.278Z,82.14
2022-08-22T06:18:03.347Z,81.84
2022-08-22T06:19:03.155Z,82.41
2022-08-22T06:20:03.228Z,82.61
2022-08-22T06:21:03.013Z,82.51
2022-08-22T06:22:02.897Z,81.76
2022-08-22T06:23:02.960Z,82.27
2022-08-22T06:24:02.958Z,81.67
2022-08-22T06:25:03.110Z,81.42
2022-08-22T06:26:02.927Z,81.32
2022-08-22T06:27:03.278Z,81.38
2022-08-22T06:28:03.284Z,81.68
2022-08-22T06:29:03.419Z,81.99
2022-08-22T06:30:04.094Z,81.55
2022-08-22T06:31:03.392Z,81.95
2022-08-22T06:32:03.648Z,81.95
2022-08-22T06:33:03.598Z,81.71
2022-08-22T06:34:03.582Z,81.10
2022-08-22T06:35:03.901Z,80.80
2022-08-22T06:36:03.632Z,80.60
2022-08-22T06:37:03.721Z,80.66
2022-08-22T06:38:03.807Z,80.97
2022-08-22T06:39:03.931Z,80.93
2022-08-22T06:40:03.484Z,81.03
2022-08-22T06:41:03.556Z,80.73
2022-08-22T06:42:03.122Z,80.79
2022-08-22T06:43:03.282Z,80.58
2022-08-22T06:44:03.405Z,80.05
2022-08-22T06:45:03.618Z,79.85
2022-08-22T06:46:03.560Z,79.64
2022-08-22T06:47:03.737Z,79.61
2022-08-22T06:48:03.812Z,79.61
2022-08-22T06:49:03.814Z,79.41
2022-08-22T06:50:03.335Z,78.97
2022-08-22T06:51:03.344Z,78.86
2022-08-22T06:52:03.244Z,78.46
2022-08-22T06:53:03.213Z,77.92
2022-08-22T06:54:03.365Z,77.62
2022-08-22T06:55:03.235Z,77.72
2022-08-22T06:56:03.453Z,77.39
2022-08-22T06:57:03.308Z,77.59
2022-08-22T06:58:03.517Z,77.39
2022-08-22T06:59:03.470Z,77.15
2022-08-22T07:00:03.421Z,76.45
2022-08-22T07:01:11.521Z,76.15
2022-08-22T07:02:02.934Z,75.95
2022-08-22T07:03:02.884Z,76.51
2022-08-22T07:04:02.461Z,75.91
2022-08-22T07:05:02.888Z,75.27
2022-08-22T07:06:02.733Z,74.37
2022-08-22T07:07:02.976Z,75.07
2022-08-22T07:08:02.944Z,75.13
2022-08-22T07:09:06.196Z,74.84
2022-08-22T07:10:02.775Z,74.33
2022-08-22T07:11:02.871Z,74.54
2022-08-22T07:12:03.259Z,73.93
2022-08-22T07:13:03.420Z,73.80
2022-08-22T07:14:03.342Z,73.70
2022-08-22T07:15:03.150Z,73.86
2022-08-22T07:16:02.899Z,73.16
2022-08-22T07:17:02.777Z,72.66
2022-08-22T07:18:02.301Z,71.92
2022-08-22T07:19:02.373Z,71.42
2022-08-22T07:20:02.278Z,71.53
2022-08-22T07:21:02.831Z,71.69
2022-08-22T07:22:03.044Z,70.69
2022-08-22T07:23:02.578Z,70.89
2022-08-22T07:24:02.771Z,71.39
2022-08-22T07:25:02.831Z,70.79
2022-08-22T07:26:03.134Z,70.49
2022-08-22T07:27:04.795Z,70.16
2022-08-22T07:28:03.718Z,70.36
2022-08-22T07:29:03.356Z,70.26
2022-08-22T07:30:04.088Z,69.86
2022-08-22T07:31:03.419Z,69.16
2022-08-22T07:32:03.252Z,69.02
2022-08-22T07:33:19.017Z,69.13
2022-08-22T07:34:02.798Z,68.23
2022-08-22T07:35:02.939Z,67.72
2022-08-22T07:36:03.066Z,68.23
2022-08-22T07:37:03.190Z,68.93
2022-08-22T07:38:03.382Z,68.03
2022-08-22T07:39:03.792Z,66.73
2022-08-22T07:40:03.583Z,67.26
2022-08-22T07:41:03.613Z,66.96
2022-08-22T07:42:02.915Z,67.66
2022-08-22T07:43:03.105Z,68.66
2022-08-22T07:44:03.361Z,68.33
2022-08-22T07:45:03.443Z,68.13
2022-08-22T07:46:03.328Z,68.43
2022-08-22T07:47:02.911Z,67.13
2022-08-22T07:48:03.099Z,67.93
2022-08-22T07:49:10.284Z,67.60
2022-08-22T07:50:02.645Z,67.40
2022-08-22T07:51:02.590Z,67.40
2022-08-22T07:52:02.916Z,67.30
2022-08-22T07:53:03.051Z,68.76
2022-08-22T07:54:03.071Z,67.36
2022-08-22T07:55:02.958Z,68.06
2022-08-22T07:56:03.474Z,67.13
2022-08-22T07:57:02.608Z,66.53
2022-08-22T07:58:03.931Z,65.64
2022-08-22T07:59:05.749Z,65.53
2022-08-22T08:00:03.205Z,65.23
2022-08-22T08:01:03.094Z,65.94
2022-08-22T08:02:02.736Z,66.53
2022-08-22T08:03:02.872Z,65.53
2022-08-22T08:04:03.142Z,65.64
2022-08-22T08:05:03.081Z,64.64
2022-08-22T08:06:03.190Z,64.44
2022-08-22T08:07:02.855Z,63.54
2022-08-22T08:08:02.930Z,65.44
2022-08-22T08:09:02.975Z,66.63
2022-08-22T08:10:03.121Z,66.53
2022-08-22T08:11:03.281Z,65.64
2022-08-22T08:12:03.379Z,65.94
2022-08-22T08:13:03.383Z,67.33
2022-08-22T08:14:03.715Z,67.23
2022-08-22T08:15:03.669Z,66.90
2022-08-22T08:16:03.396Z,67.10
2022-08-22T08:17:02.748Z,66.10
2022-08-22T08:18:02.867Z,64.90
2022-08-22T08:19:02.946Z,65.27
2022-08-22T08:20:03.020Z,66.37
2022-08-22T08:21:03.205Z,68.16
2022-08-22T08:22:03.230Z,66.97
2022-08-22T08:23:03.536Z,67.13
2022-08-22T08:24:03.638Z,66.24
2022-08-22T08:25:03.684Z,65.31
2022-08-22T08:26:03.837Z,67.00
2022-08-22T08:27:02.797Z,65.01
2022-08-22T08:28:02.929Z,63.79
2022-08-22T08:29:03.082Z,62.79
2022-08-22T08:30:03.087Z,64.09
2022-08-22T08:31:03.221Z,63.56
2022-08-22T08:32:02.944Z,63.76
2022-08-22T08:33:24.959Z,64.25
2022-08-22T08:34:03.188Z,63.23
2022-08-22T08:35:03.279Z,61.44
2022-08-22T08:36:03.908Z,60.55
2022-08-22T08:37:03.073Z,61.54
2022-08-22T08:38:03.197Z,64.59
2022-08-22T08:39:03.036Z,62.01
2022-08-22T08:40:03.191Z,62.40
2022-08-22T08:41:03.256Z,62.57
2022-08-22T08:42:03.174Z,60.98
2022-08-22T08:43:03.546Z,62.18
2022-08-22T08:44:03.149Z,62.64
2022-08-22T08:45:03.448Z,61.94
2022-08-22T08:46:03.580Z,60.26
2022-08-22T08:47:03.700Z,58.17
2022-08-22T08:48:03.654Z,57.65
2022-08-22T08:50:04.233Z,59.63
2022-08-22T08:51:04.118Z,60.33
2022-08-22T08:52:03.016Z,59.74
2022-08-22T08:53:03.205Z,61.42
2022-08-22T08:54:03.338Z,61.89
2022-08-22T08:55:15.906Z,61.79
2022-08-22T08:56:03.181Z,58.51
2022-08-22T08:57:03.348Z,59.51
2022-08-22T08:58:06.785Z,59.61
2022-08-22T08:59:03.663Z,57.92
2022-08-22T09:00:03.781Z,58.59
2022-08-22T09:01:03.664Z,59.08
2022-08-22T09:02:01.889Z,61.46
2022-08-22T09:03:07.017Z,60.96
2022-08-22T09:04:01.975Z,60.64
2022-08-22T09:05:02.118Z,56.48
2022-08-22T09:06:01.788Z,57.57
2022-08-22T09:07:02.567Z,58.95
2022-08-22T09:08:02.575Z,57.97
2022-08-22T09:09:02.724Z,56.15
2022-08-22T09:10:02.852Z,57.44
2022-08-22T09:11:02.841Z,56.15
2022-08-22T09:12:02.995Z,56.95
2022-08-22T09:13:12.245Z,56.72
2022-08-22T09:14:03.037Z,55.53
2022-08-22T09:15:02.922Z,56.42
2022-08-22T09:16:05.268Z,56.32
2022-08-22T09:17:02.151Z,56.10
2022-08-22T09:18:02.039Z,55.11
2022-08-22T09:19:02.330Z,56.59
2022-08-22T09:20:02.186Z,56.20
2022-08-22T09:21:02.338Z,56.99
2022-08-22T09:22:02.369Z,55.01
2022-08-22T09:23:02.195Z,55.60
2022-08-22T09:24:02.318Z,56.69
2022-08-22T09:25:06.271Z,55.58
2022-08-22T09:26:02.517Z,57.46
2022-08-22T09:27:02.456Z,56.67
2022-08-22T09:28:02.631Z,56.76
2022-08-22T09:29:02.538Z,56.46
2022-08-22T09:30:02.576Z,58.02
2022-08-22T09:31:02.597Z,58.42
2022-08-22T09:32:02.524Z,58.12
2022-08-22T09:33:02.258Z,55.92
2022-08-22T09:34:05.214Z,56.81
2022-08-22T09:35:02.352Z,56.02
2022-08-22T09:36:02.527Z,57.30
2022-08-22T09:37:02.914Z,56.29
2022-08-22T09:38:03.072Z,56.09
2022-08-22T09:39:02.666Z,56.68
2022-08-22T09:40:02.580Z,52.63
2022-08-22T09:41:03.131Z,52.93
2022-08-22T09:42:02.791Z,53.72
2022-08-22T09:43:02.677Z,54.51
2022-08-22T09:44:02.376Z,54.68
2022-08-22T09:45:02.284Z,53.69
2022-08-22T09:46:02.828Z,52.91
2022-08-22T09:47:02.458Z,53.59
2022-08-22T09:48:07.167Z,51.32
2022-08-22T09:49:02.365Z,51.92
2022-08-22T09:50:02.207Z,55.89
2022-08-22T09:51:20.004Z,53.89
2022-08-22T09:52:05.261Z,53.89
2022-08-22T09:53:02.460Z,55.66
2022-08-22T09:54:02.576Z,55.24
2022-08-22T09:55:02.583Z,54.65
2022-08-22T09:56:15.056Z,54.85
2022-08-22T09:57:02.550Z,54.36
2022-08-22T09:58:02.407Z,54.82
2022-08-22T09:59:02.742Z,53.94
2022-08-22T10:00:02.602Z,52.46
2022-08-22T10:01:02.226Z,51.87
2022-08-22T10:02:03.175Z,53.34
2022-08-22T10:03:03.272Z,55.09
2022-08-22T10:04:02.969Z,53.02
2022-08-22T10:05:04.080Z,53.61
2022-08-22T10:06:03.408Z,52.90
2022-08-22T10:07:03.313Z,54.87
2022-08-22T10:08:03.356Z,54.45
2022-08-22T10:09:03.123Z,54.55
2022-08-22T10:10:03.133Z,50.81
2022-08-22T10:11:03.151Z,51.50
2022-08-22T10:12:02.994Z,51.37
2022-08-22T10:13:03.149Z,52.85
2022-08-22T10:14:03.052Z,51.28
2022-08-22T10:15:02.907Z,52.14
2022-08-22T10:16:03.079Z,52.14
2022-08-22T10:17:03.424Z,48.30
2022-08-22T10:18:02.903Z,48.69
2022-08-22T10:19:03.025Z,48.20
2022-08-22T10:20:03.191Z,49.18
2022-08-22T10:21:03.270Z,48.30
2022-08-22T10:22:03.194Z,49.97
2022-08-22T10:23:03.388Z,48.59
2022-08-22T10:24:02.676Z,49.87
2022-08-22T10:25:03.159Z,48.67
2022-08-22T10:26:03.271Z,49.16
2022-08-22T10:27:03.718Z,47.19
2022-08-22T10:28:03.739Z,46.92
2022-08-22T10:29:03.367Z,48.59
2022-08-22T10:30:03.501Z,48.00
2022-08-22T10:31:03.380Z,47.51
2022-08-22T10:32:07.743Z,48.99
2022-08-22T10:33:04.164Z,49.68
2022-08-22T10:34:04.071Z,48.18
2022-08-22T10:35:03.625Z,48.57
2022-08-22T10:36:05.017Z,48.47
2022-08-22T10:37:03.851Z,46.70
2022-08-22T10:38:03.399Z,47.98
2022-08-22T10:39:09.406Z,49.33
2022-08-22T10:40:03.462Z,50.51
2022-08-22T10:41:03.486Z,47.27
2022-08-22T10:42:03.025Z,49.73
2022-08-22T10:43:03.170Z,47.56
2022-08-22T10:44:04.262Z,46.28
2022-08-22T10:45:03.185Z,46.28
2022-08-22T10:46:03.493Z,46.58
2022-08-22T10:47:02.971Z,47.27
2022-08-22T10:48:03.169Z,48.03
2022-08-22T10:49:07.903Z,49.01
2022-08-22T10:50:03.338Z,49.70
2022-08-22T10:51:03.647Z,47.05
2022-08-22T10:52:14.694Z,46.56
2022-08-22T10:53:03.693Z,48.91
2022-08-22T10:54:03.858Z,48.43
2022-08-22T10:55:05.765Z,50.27
2022-08-22T10:56:03.837Z,46.14
2022-08-22T10:57:03.451Z,46.63
2022-08-22T10:58:03.465Z,48.99
2022-08-22T10:59:04.148Z,47.20
2022-08-22T11:00:03.993Z,47.00
2022-08-22T11:01:37.942Z,49.55
2022-08-22T11:02:04.152Z,49.53
2022-08-22T11:03:02.606Z,48.35
2022-08-22T11:04:02.672Z,47.67
2022-08-22T11:05:02.831Z,46.95
2022-08-22T11:06:02.697Z,47.45
2022-08-22T11:07:02.192Z,49.29
2022-08-22T11:08:02.745Z,47.23
2022-08-22T11:09:02.672Z,45.64
2022-08-22T11:10:02.647Z,44.07
2022-08-22T11:11:03.007Z,44.68
2022-08-22T11:12:04.443Z,44.98
2022-08-22T11:13:03.152Z,43.60
2022-08-22T11:14:02.674Z,45.66
2022-08-22T11:15:03.148Z,45.15
2022-08-22T11:16:04.403Z,46.23
2022-08-22T11:17:23.611Z,47.11
2022-08-22T11:18:02.314Z,46.03
2022-08-22T11:19:14.647Z,43.95
2022-08-22T11:20:02.574Z,43.27
2022-08-22T11:21:02.900Z,44.05
2022-08-22T11:22:03.775Z,43.09
2022-08-22T11:23:02.928Z,45.81
2022-08-22T11:24:03.057Z,46.20
2022-08-22T11:25:04.706Z,42.19
2022-08-22T11:26:05.052Z,43.46
2022-08-22T11:27:02.591Z,44.73
2022-08-22T11:28:03.439Z,44.81
2022-08-22T11:29:13.553Z,43.73
2022-08-22T11:30:03.492Z,44.91
2022-08-22T11:31:02.951Z,43.24
2022-08-22T11:32:06.431Z,45.01
2022-08-22T11:33:02.989Z,45.10
2022-08-22T11:34:02.584Z,42.85
2022-08-22T11:35:02.575Z,42.46
2022-08-22T11:36:04.605Z,43.73
2022-08-22T11:37:02.775Z,41.78
2022-08-22T11:38:03.043Z,42.44
2022-08-22T11:39:02.800Z,44.30
2022-08-22T11:40:02.919Z,42.83
2022-08-22T11:41:02.939Z,44.40
2022-08-22T11:42:02.431Z,45.37
2022-08-22T11:43:03.764Z,43.91
2022-08-22T11:44:03.616Z,43.23
2022-08-22T11:45:02.839Z,42.74
2022-08-22T11:46:02.965Z,42.36
2022-08-22T11:47:02.976Z,44.30
2022-08-22T11:48:03.773Z,43.42
2022-08-22T11:49:03.776Z,44.98
2022-08-22T11:50:03.594Z,44.98
2022-08-22T11:51:03.345Z,46.16
2022-08-22T11:52:03.726Z,45.18
2022-08-22T11:53:07.593Z,42.44
2022-08-22T11:54:03.790Z,44.30
2022-08-22T11:55:03.953Z,44.69
2022-08-22T11:56:05.442Z,47.53
2022-08-22T11:57:03.903Z,46.06
2022-08-22T11:58:03.514Z,45.75
2022-08-22T11:59:03.440Z,46.43
2022-08-22T12:00:03.388Z,45.62
2022-08-22T12:01:03.388Z,42.89
2022-08-22T12:02:03.992Z,43.08
2022-08-22T12:03:03.133Z,41.21
2022-08-22T12:04:03.431Z,40.43
2022-08-22T12:05:03.598Z,42.97
2022-08-22T12:06:03.801Z,43.75
2022-08-22T12:07:03.523Z,42.87
2022-08-22T12:08:03.041Z,42.07
2022-08-22T12:09:03.025Z,42.65
2022-08-22T12:10:02.906Z,40.31
2022-08-22T12:11:02.654Z,39.92
2022-08-22T12:12:04.709Z,41.97
2022-08-22T12:13:02.850Z,39.92
2022-08-22T12:14:06.050Z,40.99
2022-08-22T12:15:03.371Z,40.99
2022-08-22T12:16:03.087Z,40.31
2022-08-22T12:17:03.253Z,42.26
2022-08-22T12:18:02.676Z,41.97
2022-08-22T12:19:02.823Z,41.17
2022-08-22T12:20:18.782Z,42.73
2022-08-22T12:21:02.862Z,41.05
2022-08-22T12:22:02.740Z,42.02
2022-08-22T12:23:02.991Z,40.95
2022-08-22T12:24:06.037Z,42.88
2022-08-22T12:25:03.338Z,42.20
2022-08-22T12:26:02.558Z,40.25
2022-08-22T12:27:03.073Z,38.40
2022-08-22T12:28:03.197Z,39.57
2022-08-22T12:29:03.529Z,39.76
2022-08-22T12:30:03.578Z,40.25
2022-08-22T12:31:03.508Z,41.22
2022-08-22T12:32:03.683Z,38.77
2022-08-22T12:33:02.679Z,40.03
2022-08-22T12:34:02.829Z,40.52
2022-08-22T12:35:02.631Z,40.41
2022-08-22T12:36:02.784Z,41.19
2022-08-22T12:37:02.953Z,40.41
2022-08-22T12:38:03.834Z,41.55
2022-08-22T12:39:03.282Z,41.53
2022-08-22T12:40:03.412Z,40.47
2022-08-22T12:41:03.290Z,39.98
2022-08-22T12:42:04.124Z,39.08
2022-08-22T12:43:03.439Z,38.01
2022-08-22T12:44:04.042Z,39.47
2022-08-22T12:45:03.902Z,38.40
2022-08-22T12:46:03.936Z,37.24
2022-08-22T12:47:04.281Z,37.24